createdAt,value
2019-05-01T00:02:08.117Z,14.50
2019-05-01T00:04:45.630Z,14.40
2019-05-01T00:07:21.093Z,14.20
2019-05-01T00:09:50.478Z,14.10
2019-05-01T00:12:20.596Z,14.10
2019-05-01T00:14:49.889Z,14.00
2019-05-01T00:17:19.845Z,14.00
2019-05-01T00:19:49.157Z,13.90
2019-05-01T00:22:18.441Z,13.90
2019-05-01T00:24:47.744Z,13.90
2019-05-01T00:27:17.037Z,13.90
2019-05-01T00:29:46.389Z,13.90
2019-05-01T00:32:15.789Z,13.90
2019-05-01T00:34:45.065Z,13.90
2019-05-01T00:37:14.440Z,13.80
2019-05-01T00:39:43.714Z,13.80
2019-05-01T00:42:13.009Z,13.80
2019-05-01T00:44:42.305Z,13.70
2019-05-01T00:47:11.602Z,13.70
2019-05-01T00:49:40.853Z,13.60
2019-05-01T00:52:10.379Z,13.50
2019-05-01T00:54:41.212Z,13.40
2019-05-01T00:57:38.625Z,13.40
2019-05-01T01:00:27.160Z,13.30
2019-05-01T01:02:57.121Z,13.20
2019-05-01T01:05:26.432Z,13.10
2019-05-01T01:07:55.709Z,13.00
2019-05-01T01:10:25.021Z,12.90
2019-05-01T01:12:54.269Z,12.90
2019-05-01T01:15:23.716Z,12.80
2019-05-01T01:17:53.097Z,12.80
2019-05-01T01:20:22.460Z,12.70
2019-05-01T01:22:51.804Z,12.70
2019-05-01T01:25:21.220Z,12.70
2019-05-01T01:27:50.628Z,12.70
2019-05-01T01:30:20.396Z,12.60
2019-05-01T01:32:49.788Z,12.60
2019-05-01T01:35:19.104Z,12.60
2019-05-01T01:37:48.431Z,12.60
2019-05-01T01:40:18.040Z,12.50
2019-05-01T01:42:49.036Z,12.50
2019-05-01T01:45:34.485Z,12.40
2019-05-01T01:48:11.026Z,12.40
2019-05-01T01:50:42.360Z,12.40
2019-05-01T01:53:15.012Z,12.40
2019-05-01T01:55:44.687Z,12.40
2019-05-01T01:58:14.768Z,12.40
2019-05-01T02:01:21.739Z,12.40
2019-05-01T02:03:55.724Z,12.40
2019-05-01T02:06:24.997Z,12.30
2019-05-01T02:08:56.641Z,12.30
2019-05-01T02:11:25.871Z,12.20
2019-05-01T02:13:56.751Z,12.10
2019-05-01T02:16:26.536Z,12.10
2019-05-01T02:18:55.901Z,12.10
2019-05-01T02:21:25.173Z,12.10
2019-05-01T02:23:54.595Z,12.10
2019-05-01T02:26:25.823Z,12.10
2019-05-01T02:29:19.283Z,12.10
2019-05-01T02:31:50.980Z,12.10
2019-05-01T02:34:20.848Z,12.10
2019-05-01T02:36:52.015Z,12.10
2019-05-01T02:39:23.512Z,12.00
2019-05-01T02:41:54.951Z,12.00
2019-05-01T02:44:40.751Z,12.00
2019-05-01T02:47:13.284Z,12.00
2019-05-01T02:49:51.651Z,11.90
2019-05-01T02:52:23.447Z,11.80
2019-05-01T02:54:55.239Z,11.70
2019-05-01T02:57:26.112Z,11.60
2019-05-01T02:59:57.248Z,11.50
2019-05-01T03:02:28.234Z,11.50
2019-05-01T03:04:58.732Z,11.50
2019-05-01T03:07:31.396Z,11.50
2019-05-01T03:10:01.588Z,11.50
2019-05-01T03:12:33.500Z,11.40
2019-05-01T03:15:04.720Z,11.40
2019-05-01T03:17:49.255Z,11.40
2019-05-01T03:20:34.427Z,11.30
2019-05-01T03:23:25.975Z,11.20
2019-05-01T03:25:56.338Z,11.10
2019-05-01T03:28:25.799Z,11.10
2019-05-01T03:30:55.583Z,11.00
2019-05-01T03:33:25.168Z,11.00
2019-05-01T03:35:54.664Z,11.00
2019-05-01T03:38:24.308Z,11.00
2019-05-01T03:40:53.963Z,10.90
2019-05-01T03:43:23.425Z,10.90
2019-05-01T03:45:52.987Z,10.90
2019-05-01T03:48:22.562Z,10.80
2019-05-01T03:50:51.944Z,10.80
2019-05-01T03:53:21.213Z,10.70
2019-05-01T03:55:50.754Z,10.60
2019-05-01T03:58:20.267Z,10.70
2019-05-01T04:00:56.975Z,10.70
2019-05-01T04:03:30.163Z,10.70
2019-05-01T04:05:59.835Z,10.60
2019-05-01T04:08:29.594Z,10.70
2019-05-01T04:10:59.263Z,10.70
2019-05-01T04:13:29.058Z,10.80
2019-05-01T04:15:58.687Z,10.80
2019-05-01T04:18:28.482Z,10.90
2019-05-01T04:20:58.649Z,10.90
2019-05-01T04:23:28.246Z,10.90
2019-05-01T04:25:57.658Z,11.00
2019-05-01T04:28:40.628Z,10.90
2019-05-01T04:31:35.491Z,10.90
2019-05-01T04:34:10.049Z,11.00
2019-05-01T04:36:43.048Z,11.00
2019-05-01T04:39:12.610Z,10.90
2019-05-01T04:41:41.911Z,11.00
2019-05-01T04:44:11.218Z,11.00
2019-05-01T04:46:40.538Z,11.10
2019-05-01T04:49:09.892Z,11.10
2019-05-01T04:51:39.568Z,11.10
2019-05-01T04:54:09.115Z,11.10
2019-05-01T04:56:38.701Z,11.20
2019-05-01T04:59:08.183Z,11.20
2019-05-01T05:02:02.427Z,11.20
2019-05-01T05:04:31.969Z,11.20
2019-05-01T05:07:01.929Z,11.20
2019-05-01T05:09:46.013Z,11.30
2019-05-01T05:12:24.937Z,11.40
2019-05-01T05:14:59.121Z,11.40
2019-05-01T05:17:28.850Z,11.40
2019-05-01T05:19:58.289Z,11.40
2019-05-01T05:22:27.729Z,11.40
2019-05-01T05:24:57.033Z,11.40
2019-05-01T05:27:26.592Z,11.50
2019-05-01T05:29:58.156Z,11.50
2019-05-01T05:32:30.150Z,11.50
2019-05-01T05:35:00.656Z,11.50
2019-05-01T05:37:35.940Z,11.60
2019-05-01T05:40:05.860Z,11.60
2019-05-01T05:42:35.528Z,11.60
2019-05-01T05:45:05.256Z,11.60
2019-05-01T05:47:34.920Z,11.60
2019-05-01T05:50:04.520Z,11.70
2019-05-01T05:52:41.016Z,11.80
2019-05-01T05:55:29.485Z,11.80
2019-05-01T05:58:18.225Z,11.90
2019-05-01T06:01:07.807Z,12.00
2019-05-01T06:04:01.131Z,12.00
2019-05-01T06:06:40.080Z,12.10
2019-05-01T06:09:14.032Z,12.10
2019-05-01T06:12:04.992Z,12.10
2019-05-01T06:15:02.453Z,12.10
2019-05-01T06:17:48.161Z,12.10
2019-05-01T06:20:37.471Z,12.20
2019-05-01T06:23:28.520Z,12.20
2019-05-01T06:26:02.570Z,12.30
2019-05-01T06:28:32.126Z,12.30
2019-05-01T06:31:22.891Z,12.40
2019-05-01T06:33:53.089Z,12.40
2019-05-01T06:36:23.477Z,12.50
2019-05-01T06:38:51.555Z,12.50
2019-05-01T06:41:20.903Z,12.60
2019-05-01T06:44:02.402Z,12.60
2019-05-01T06:46:39.939Z,12.70
2019-05-01T06:49:24.278Z,12.70
2019-05-01T06:51:55.233Z,12.70
2019-05-01T06:54:27.235Z,12.70
2019-05-01T06:56:58.307Z,12.80
2019-05-01T06:59:31.287Z,12.90
2019-05-01T07:02:00.687Z,12.90
2019-05-01T07:04:32.200Z,13.00
2019-05-01T07:07:06.753Z,13.00
2019-05-01T07:09:37.291Z,13.00
2019-05-01T07:12:09.766Z,13.10
2019-05-01T07:14:39.250Z,13.20
2019-05-01T07:17:08.890Z,13.20
2019-05-01T07:19:57.426Z,13.30
2019-05-01T07:22:26.676Z,13.30
2019-05-01T07:24:59.013Z,13.40
2019-05-01T07:27:27.362Z,13.40
2019-05-01T07:29:59.912Z,13.40
2019-05-01T07:32:29.470Z,13.50
2019-05-01T07:35:02.040Z,13.50
2019-05-01T07:37:30.046Z,13.50
2019-05-01T07:40:00.354Z,13.60
2019-05-01T07:42:31.218Z,13.70
2019-05-01T07:45:20.546Z,13.70
2019-05-01T07:47:50.554Z,13.80
2019-05-01T07:50:23.878Z,13.80
2019-05-01T07:52:53.828Z,13.80
2019-05-01T07:55:36.087Z,13.90
2019-05-01T07:58:10.188Z,13.90
2019-05-01T08:01:18.114Z,13.90
2019-05-01T08:03:44.262Z,14.00
2019-05-01T08:06:16.343Z,14.00
2019-05-01T08:08:44.714Z,14.10
2019-05-01T08:11:14.022Z,14.10
2019-05-01T08:13:43.282Z,14.10
2019-05-01T08:16:12.969Z,14.20
2019-05-01T08:18:59.007Z,14.20
2019-05-01T08:22:03.027Z,14.20
2019-05-01T08:24:32.549Z,14.30
2019-05-01T08:27:01.898Z,14.30
2019-05-01T08:30:02.629Z,14.30
2019-05-01T08:32:56.953Z,14.30
2019-05-01T08:35:31.784Z,14.40
2019-05-01T08:38:00.321Z,14.40
2019-05-01T08:40:29.785Z,14.40
2019-05-01T08:42:59.101Z,14.50
2019-05-01T08:45:56.741Z,14.60
2019-05-01T08:48:36.032Z,14.60
2019-05-01T08:51:05.077Z,14.60
2019-05-01T08:53:34.381Z,14.60
2019-05-01T08:56:03.637Z,14.70
2019-05-01T08:58:33.029Z,14.80
2019-05-01T09:01:02.621Z,14.80
2019-05-01T09:03:31.961Z,14.80
2019-05-01T09:06:01.332Z,14.90
2019-05-01T09:08:32.076Z,14.90
2019-05-01T09:11:02.301Z,15.00
2019-05-01T09:13:32.052Z,15.00
2019-05-01T09:16:01.416Z,15.10
2019-05-01T09:18:30.852Z,15.10
2019-05-01T09:21:00.156Z,15.20
2019-05-01T09:23:29.437Z,15.20
2019-05-01T09:26:33.103Z,15.30
2019-05-01T09:29:06.032Z,15.30
2019-05-01T09:31:35.888Z,15.30
2019-05-01T09:34:05.792Z,15.40
2019-05-01T09:36:35.484Z,15.40
2019-05-01T09:39:06.419Z,15.50
2019-05-01T09:41:38.253Z,15.50
2019-05-01T09:44:10.612Z,15.50
2019-05-01T09:46:38.126Z,15.60
2019-05-01T09:49:07.704Z,15.60
2019-05-01T09:52:05.264Z,15.70
2019-05-01T09:54:59.651Z,15.70
2019-05-01T09:57:29.055Z,15.70
2019-05-01T09:59:58.360Z,15.80
2019-05-01T10:02:27.739Z,15.80
2019-05-01T10:04:57.111Z,15.90
2019-05-01T10:07:28.969Z,15.90
2019-05-01T10:09:57.457Z,16.00
2019-05-01T10:12:26.942Z,16.00
2019-05-01T10:14:56.151Z,16.10
2019-05-01T10:17:25.455Z,16.20
2019-05-01T10:19:54.835Z,16.30
2019-05-01T10:22:24.171Z,16.30
2019-05-01T10:24:53.493Z,16.30
2019-05-01T10:27:25.579Z,16.40
2019-05-01T10:30:13.869Z,16.40
2019-05-01T10:32:52.806Z,16.50
2019-05-01T10:35:41.519Z,16.60
2019-05-01T10:37:59.883Z,16.70
2019-05-01T10:40:32.356Z,16.70
2019-05-01T10:43:00.183Z,16.80
2019-05-01T10:45:29.512Z,16.80
2019-05-01T10:47:58.879Z,16.90
2019-05-01T10:50:28.439Z,17.00
2019-05-01T10:52:57.827Z,17.10
2019-05-01T10:55:27.214Z,17.20
2019-05-01T10:57:56.573Z,17.20
2019-05-01T11:00:25.895Z,17.30
2019-05-01T11:02:55.407Z,17.50
2019-05-01T11:05:24.730Z,17.70
2019-05-01T11:07:54.059Z,18.40
2019-05-01T11:10:23.350Z,19.10
2019-05-01T11:12:52.682Z,19.90
2019-05-01T11:15:22.259Z,20.70
2019-05-01T11:17:51.540Z,21.20
2019-05-01T11:20:20.866Z,21.60
2019-05-01T11:22:50.153Z,21.50
2019-05-01T11:25:20.658Z,21.20
2019-05-01T11:27:49.915Z,21.40
2019-05-01T11:30:19.400Z,21.80
2019-05-01T11:32:55.618Z,22.30
2019-05-01T11:35:50.207Z,22.60
2019-05-01T11:38:37.563Z,22.90
2019-05-01T11:41:11.694Z,23.40
2019-05-01T11:43:41.022Z,23.70
2019-05-01T11:46:10.516Z,24.20
2019-05-01T11:48:39.829Z,24.30
2019-05-01T11:51:09.126Z,24.60
2019-05-01T11:53:38.466Z,24.70
2019-05-01T11:56:07.752Z,24.70
2019-05-01T11:58:37.034Z,24.10
2019-05-01T12:01:07.130Z,23.70
2019-05-01T12:03:36.498Z,23.60
2019-05-01T12:06:05.902Z,23.40
2019-05-01T12:08:35.286Z,23.20
2019-05-01T12:11:06.214Z,23.50
2019-05-01T12:13:43.604Z,23.90
2019-05-01T12:16:25.546Z,24.40
2019-05-01T12:18:54.915Z,24.80
2019-05-01T12:21:24.299Z,25.10
2019-05-01T12:23:53.743Z,25.40
2019-05-01T12:26:22.950Z,25.70
2019-05-01T12:28:52.337Z,26.00
2019-05-01T12:31:21.711Z,26.10
2019-05-01T12:33:51.046Z,26.20
2019-05-01T12:36:20.424Z,26.30
2019-05-01T12:38:49.716Z,26.40
2019-05-01T12:41:41.009Z,26.60
2019-05-01T12:44:10.965Z,26.70
2019-05-01T12:46:58.741Z,26.00
2019-05-01T12:49:28.045Z,25.20
2019-05-01T12:52:09.890Z,24.60
2019-05-01T12:54:51.848Z,24.80
2019-05-01T12:57:20.481Z,25.50
2019-05-01T12:59:49.826Z,25.70
2019-05-01T13:02:19.196Z,25.30
2019-05-01T13:04:48.625Z,24.90
2019-05-01T13:07:17.920Z,24.50
2019-05-01T13:09:47.314Z,24.30
2019-05-01T13:12:16.645Z,24.00
2019-05-01T13:14:46.020Z,23.70
2019-05-01T13:17:15.344Z,23.30
2019-05-01T13:19:44.837Z,22.90
2019-05-01T13:22:14.153Z,22.60
2019-05-01T13:24:52.400Z,22.40
2019-05-01T13:27:34.276Z,22.10
2019-05-01T13:30:16.489Z,21.80
2019-05-01T13:32:50.737Z,21.60
2019-05-01T13:35:20.016Z,21.40
2019-05-01T13:37:49.384Z,21.30
2019-05-01T13:40:18.912Z,21.20
2019-05-01T13:42:48.312Z,21.10
2019-05-01T13:45:17.793Z,21.10
2019-05-01T13:47:47.164Z,21.20
2019-05-01T13:50:16.483Z,21.30
2019-05-01T13:52:45.881Z,21.80
2019-05-01T13:55:15.924Z,22.00
2019-05-01T13:57:45.320Z,22.00
2019-05-01T14:00:15.196Z,21.90
2019-05-01T14:02:44.472Z,21.70
2019-05-01T14:05:13.963Z,21.50
2019-05-01T14:07:43.388Z,21.30
2019-05-01T14:10:12.727Z,21.20
2019-05-01T14:12:42.035Z,21.00
2019-05-01T14:15:11.430Z,21.00
2019-05-01T14:17:40.735Z,20.90
2019-05-01T14:20:37.115Z,20.90
2019-05-01T14:23:11.852Z,20.90
2019-05-01T14:25:58.975Z,20.80
2019-05-01T14:28:28.371Z,20.70
2019-05-01T14:30:57.745Z,20.60
2019-05-01T14:33:27.011Z,20.50
2019-05-01T14:35:56.391Z,20.30
2019-05-01T14:38:25.642Z,20.20
2019-05-01T14:40:54.936Z,20.10
2019-05-01T14:43:24.305Z,20.10
2019-05-01T14:45:55.910Z,20.10
2019-05-01T14:48:24.618Z,20.10
2019-05-01T14:50:53.964Z,20.10
2019-05-01T14:53:23.343Z,20.10
2019-05-01T14:55:52.663Z,20.00
2019-05-01T14:58:22.019Z,19.90
2019-05-01T15:00:51.299Z,19.90
2019-05-01T15:03:20.687Z,19.80
2019-05-01T15:05:49.998Z,19.70
2019-05-01T15:08:19.359Z,19.60
2019-05-01T15:10:48.742Z,19.50
2019-05-01T15:13:28.358Z,19.40
2019-05-01T15:16:22.546Z,19.30
2019-05-01T15:19:03.947Z,19.20
2019-05-01T15:21:33.330Z,19.20
2019-05-01T15:24:02.671Z,19.20
2019-05-01T15:26:32.066Z,19.10
2019-05-01T15:29:01.430Z,19.10
2019-05-01T15:31:30.814Z,19.10
2019-05-01T15:34:00.070Z,19.10
2019-05-01T15:36:29.446Z,19.00
2019-05-01T15:38:59.218Z,18.90
2019-05-01T15:42:02.473Z,18.90
2019-05-01T15:44:34.614Z,18.90
2019-05-01T15:47:03.890Z,18.80
2019-05-01T15:49:33.729Z,18.70
2019-05-01T15:52:02.994Z,18.60
2019-05-01T15:54:32.309Z,18.60
2019-05-01T15:57:01.586Z,18.50
2019-05-01T15:59:30.926Z,18.40
2019-05-01T16:02:00.306Z,18.30
2019-05-01T16:04:29.694Z,18.10
2019-05-01T16:06:59.013Z,17.70
2019-05-01T16:09:28.505Z,17.30
2019-05-01T16:12:16.833Z,17.10
2019-05-01T16:14:48.245Z,16.90
2019-05-01T16:17:17.621Z,16.80
2019-05-01T16:19:46.876Z,16.70
2019-05-01T16:22:16.188Z,16.70
2019-05-01T16:24:45.581Z,16.70
2019-05-01T16:27:14.928Z,16.70
2019-05-01T16:29:44.329Z,16.70
2019-05-01T16:32:13.677Z,16.80
2019-05-01T16:34:43.010Z,16.90
2019-05-01T16:37:12.392Z,17.00
2019-05-01T16:39:50.649Z,17.10
2019-05-01T16:42:22.032Z,17.20
2019-05-01T16:44:51.413Z,17.30
2019-05-01T16:47:20.985Z,17.40
2019-05-01T16:49:50.245Z,17.40
2019-05-01T16:52:21.881Z,17.50
2019-05-01T16:54:59.048Z,17.40
2019-05-01T16:57:22.488Z,17.40
2019-05-01T16:59:51.825Z,17.40
2019-05-01T17:02:52.305Z,17.40
2019-05-01T17:05:46.565Z,17.40
2019-05-01T17:08:36.004Z,17.40
2019-05-01T17:10:57.136Z,17.30
2019-05-01T17:13:26.532Z,17.30
2019-05-01T17:15:55.988Z,17.30
2019-05-01T17:18:25.411Z,17.30
2019-05-01T17:20:54.728Z,17.40
2019-05-01T17:23:24.117Z,17.40
2019-05-01T17:25:53.457Z,17.30
2019-05-01T17:28:22.825Z,17.30
2019-05-01T17:30:57.063Z,17.20
2019-05-01T17:33:26.368Z,17.10
2019-05-01T17:35:55.709Z,17.00
2019-05-01T17:38:25.132Z,16.90
2019-05-01T17:40:54.448Z,16.80
2019-05-01T17:43:23.935Z,16.70
2019-05-01T17:45:53.596Z,16.70
2019-05-01T17:48:22.996Z,16.70
2019-05-01T17:50:55.056Z,16.60
2019-05-01T17:53:23.324Z,16.60
2019-05-01T17:55:52.599Z,16.60
2019-05-01T17:58:21.907Z,16.50
2019-05-01T18:01:14.508Z,16.50
2019-05-01T18:04:02.860Z,16.40
2019-05-01T18:06:34.432Z,16.30
2019-05-01T18:09:08.016Z,16.30
2019-05-01T18:11:36.043Z,16.20
2019-05-01T18:14:05.976Z,16.20
2019-05-01T18:16:35.481Z,16.10
2019-05-01T18:19:04.951Z,16.10
2019-05-01T18:21:34.335Z,16.10
2019-05-01T18:24:31.751Z,16.00
2019-05-01T18:27:20.491Z,16.00
2019-05-01T18:29:52.439Z,16.00
2019-05-01T18:32:28.835Z,16.00
2019-05-01T18:34:58.251Z,16.00
2019-05-01T18:37:35.141Z,16.00
2019-05-01T18:40:03.856Z,16.00
2019-05-01T18:42:33.267Z,16.10
2019-05-01T18:45:02.648Z,16.10
2019-05-01T18:47:32.044Z,16.00
2019-05-01T18:50:01.346Z,15.90
2019-05-01T18:52:30.988Z,15.80
2019-05-01T18:55:00.338Z,15.80
2019-05-01T18:57:29.703Z,15.70
2019-05-01T18:59:59.064Z,15.70
2019-05-01T19:02:28.484Z,15.70
2019-05-01T19:04:57.840Z,15.70
2019-05-01T19:07:27.607Z,15.70
2019-05-01T19:09:57.009Z,15.80
2019-05-01T19:12:26.275Z,15.80
2019-05-01T19:14:55.699Z,15.80
2019-05-01T19:17:25.094Z,15.80
2019-05-01T19:19:54.396Z,15.80
2019-05-01T19:22:23.680Z,15.80
2019-05-01T19:24:53.052Z,15.80
2019-05-01T19:27:24.272Z,15.80
2019-05-01T19:29:53.750Z,15.80
2019-05-01T19:32:23.823Z,15.80
2019-05-01T19:34:53.075Z,15.80
2019-05-01T19:37:24.017Z,15.70
2019-05-01T19:39:54.993Z,15.70
2019-05-01T19:42:24.531Z,15.70
2019-05-01T19:44:56.426Z,15.70
2019-05-01T19:47:24.957Z,15.80
2019-05-01T19:49:54.655Z,15.80
2019-05-01T19:52:24.155Z,15.80
2019-05-01T19:54:53.607Z,15.80
2019-05-01T19:57:22.884Z,15.80
2019-05-01T19:59:52.178Z,15.80
2019-05-01T20:02:22.095Z,15.80
2019-05-01T20:04:52.569Z,15.70
2019-05-01T20:07:22.021Z,15.60
2019-05-01T20:09:57.163Z,15.60
2019-05-01T20:12:22.404Z,15.50
2019-05-01T20:14:51.823Z,15.30
2019-05-01T20:17:21.193Z,15.20
2019-05-01T20:19:50.521Z,15.10
2019-05-01T20:22:19.835Z,15.10
2019-05-01T20:24:49.218Z,15.00
2019-05-01T20:27:18.514Z,14.90
2019-05-01T20:29:47.911Z,14.90
2019-05-01T20:32:21.154Z,14.80
2019-05-01T20:34:52.632Z,14.80
2019-05-01T20:37:19.146Z,14.80
2019-05-01T20:39:48.450Z,14.80
2019-05-01T20:42:17.718Z,14.80
2019-05-01T20:44:47.022Z,14.80
2019-05-01T20:47:33.716Z,14.90
2019-05-01T20:49:47.514Z,14.90
2019-05-01T20:52:16.900Z,14.90
2019-05-01T20:54:46.234Z,14.90
2019-05-01T20:57:29.025Z,14.90
2019-05-01T20:59:58.398Z,14.90
2019-05-01T21:02:27.770Z,14.80
2019-05-01T21:05:15.138Z,14.80
2019-05-01T21:07:56.691Z,14.80
2019-05-01T21:10:29.907Z,14.90
2019-05-01T21:12:59.162Z,14.90
2019-05-01T21:15:28.629Z,14.80
2019-05-01T21:17:57.922Z,14.80
2019-05-01T21:20:27.506Z,14.80
2019-05-01T21:22:56.810Z,14.80
2019-05-01T21:25:26.238Z,14.80
2019-05-01T21:27:55.538Z,14.80
2019-05-01T21:30:24.913Z,14.80
2019-05-01T21:32:54.274Z,14.80
2019-05-01T21:35:24.008Z,14.80
2019-05-01T21:37:53.465Z,14.80
2019-05-01T21:40:23.081Z,14.70
2019-05-01T21:42:55.724Z,14.70
2019-05-01T21:45:23.261Z,14.70
2019-05-01T21:47:52.913Z,14.70
2019-05-01T21:50:26.124Z,14.70
2019-05-01T21:52:53.768Z,14.80
2019-05-01T21:55:25.787Z,14.70
2019-05-01T21:57:55.099Z,14.70
2019-05-01T22:00:26.552Z,14.70
2019-05-01T22:02:55.808Z,14.70
2019-05-01T22:05:24.601Z,14.60
2019-05-01T22:07:53.977Z,14.70
2019-05-01T22:10:26.611Z,14.60
2019-05-01T22:12:54.289Z,14.70
2019-05-01T22:15:29.568Z,14.70
2019-05-01T22:18:10.576Z,14.70
2019-05-01T22:20:44.201Z,14.70
2019-05-01T22:23:17.042Z,14.70
2019-05-01T22:25:49.492Z,14.70
2019-05-01T22:28:26.729Z,14.70
2019-05-01T22:31:09.408Z,14.70
2019-05-01T22:33:39.176Z,14.70
2019-05-01T22:36:08.820Z,14.60
2019-05-01T22:38:38.212Z,14.60
2019-05-01T22:41:10.827Z,14.60
2019-05-01T22:43:40.221Z,14.70
2019-05-01T22:46:14.784Z,14.60
2019-05-01T22:48:44.145Z,14.60
2019-05-01T22:51:19.361Z,14.60
2019-05-01T22:53:54.400Z,14.60
2019-05-01T22:56:24.972Z,14.60
2019-05-01T22:58:54.379Z,14.50
2019-05-01T23:01:24.756Z,14.50
2019-05-01T23:04:16.665Z,14.50
2019-05-01T23:06:43.201Z,14.60
2019-05-01T23:09:14.057Z,14.50
2019-05-01T23:11:45.543Z,14.50
2019-05-01T23:14:15.184Z,14.50
2019-05-01T23:16:51.452Z,14.50
2019-05-01T23:19:22.913Z,14.50
2019-05-01T23:21:52.644Z,14.50
2019-05-01T23:24:22.071Z,14.50
2019-05-01T23:26:51.827Z,14.50
2019-05-01T23:29:22.292Z,14.50
2019-05-01T23:31:51.627Z,14.50
2019-05-01T23:34:21.082Z,14.50
2019-05-01T23:36:51.967Z,14.50
2019-05-01T23:39:21.235Z,14.50
2019-05-01T23:41:50.659Z,14.50
2019-05-01T23:44:20.016Z,14.50
2019-05-01T23:46:49.399Z,14.50
2019-05-01T23:49:18.827Z,14.50
2019-05-01T23:51:48.155Z,14.50
2019-05-01T23:54:17.435Z,14.50
2019-05-01T23:56:46.687Z,14.40
2019-05-01T23:59:16.071Z,14.40
